createdAt,value
2023-03-15T00:00:15.718Z,100224.91
2023-03-15T00:02:45.506Z,100232.88
2023-03-15T00:05:15.664Z,100235.78
2023-03-15T00:07:47.637Z,100228.41
2023-03-15T00:10:17.063Z,100236.50
2023-03-15T00:12:46.457Z,100247.53
2023-03-15T00:15:16.990Z,100253.50
2023-03-15T00:17:46.455Z,100257.03
2023-03-15T00:20:18.962Z,100271.44
2023-03-15T00:22:50.947Z,100277.28
2023-03-15T00:25:20.755Z,100277.78
2023-03-15T00:27:50.114Z,100285.53
2023-03-15T00:30:20.569Z,100288.31
2023-03-15T00:32:50.297Z,100300.56
2023-03-15T00:35:20.600Z,100303.13
2023-03-15T00:37:54.413Z,100309.44
2023-03-15T00:40:23.836Z,100306.91
2023-03-15T00:42:53.486Z,100311.25
2023-03-15T00:45:24.472Z,100317.31
2023-03-15T00:47:54.417Z,100319.97
2023-03-15T00:50:24.899Z,100327.84
2023-03-15T00:52:56.953Z,100327.94
2023-03-15T00:55:27.106Z,100335.53
2023-03-15T00:57:56.737Z,100333.75
2023-03-15T01:00:27.797Z,100340.59
2023-03-15T01:02:57.729Z,100337.97
2023-03-15T01:05:27.154Z,100351.34
2023-03-15T01:07:59.174Z,100354.03
2023-03-15T01:10:28.576Z,100350.72
2023-03-15T01:13:00.931Z,100353.41
2023-03-15T01:15:30.364Z,100348.09
2023-03-15T01:17:59.735Z,100348.97
2023-03-15T01:20:29.162Z,100356.06
2023-03-15T01:23:01.264Z,100356.81
2023-03-15T01:25:30.707Z,100356.06
2023-03-15T01:28:00.108Z,100355.16
2023-03-15T01:30:29.528Z,100350.47
2023-03-15T01:32:59.567Z,100358.59
2023-03-15T01:35:28.973Z,100364.66
2023-03-15T01:38:00.951Z,100362.88
2023-03-15T01:40:30.381Z,100374.78
2023-03-15T01:43:17.724Z,100377.09
2023-03-15T01:46:01.636Z,100378.09
2023-03-15T01:48:33.805Z,100374.28
2023-03-15T01:51:04.436Z,100385.31
2023-03-15T01:53:36.945Z,100395.31
2023-03-15T01:56:07.843Z,100386.19
2023-03-15T01:58:37.996Z,100401.25
2023-03-15T02:01:07.862Z,100399.59
2023-03-15T02:03:39.106Z,100403.03
2023-03-15T02:06:10.917Z,100404.19
2023-03-15T02:08:45.855Z,100403.13
2023-03-15T02:11:16.573Z,100404.66
2023-03-15T02:13:46.661Z,100408.88
2023-03-15T02:16:16.084Z,100414.44
2023-03-15T02:18:45.817Z,100413.53
2023-03-15T02:21:36.298Z,100415.06
2023-03-15T02:24:18.694Z,100426.19
2023-03-15T02:26:51.360Z,100419.50
2023-03-15T02:29:25.285Z,100416.84
2023-03-15T02:31:55.189Z,100427.19
2023-03-15T02:34:25.532Z,100423.03
2023-03-15T02:36:55.727Z,100424.81
2023-03-15T02:39:27.349Z,100419.75
2023-03-15T02:41:58.691Z,100427.72
2023-03-15T02:44:33.390Z,100437.59
2023-03-15T02:47:06.141Z,100436.97
2023-03-15T02:49:39.319Z,100439.75
2023-03-15T02:52:09.521Z,100451.03
2023-03-15T02:54:39.410Z,100453.44
2023-03-15T02:57:09.137Z,100465.09
2023-03-15T02:59:42.122Z,100462.94
2023-03-15T03:02:12.354Z,100464.44
2023-03-15T03:04:42.081Z,100461.16
2023-03-15T03:07:11.663Z,100470.78
2023-03-15T03:09:41.111Z,100480.41
2023-03-15T03:12:10.614Z,100492.31
2023-03-15T03:14:46.033Z,100493.22
2023-03-15T03:17:15.435Z,100504.84
2023-03-15T03:19:45.101Z,100513.59
2023-03-15T03:22:16.270Z,100517.78
2023-03-15T03:24:46.196Z,100514.34
2023-03-15T03:27:16.846Z,100519.41
2023-03-15T03:29:48.927Z,100528.03
2023-03-15T03:32:18.364Z,100532.84
2023-03-15T03:34:48.394Z,100536.13
2023-03-15T03:37:19.681Z,100546.25
2023-03-15T03:39:49.720Z,100544.75
2023-03-15T03:42:19.163Z,100559.06
2023-03-15T03:44:51.199Z,100552.47
2023-03-15T03:47:20.598Z,100557.81
2023-03-15T03:49:49.964Z,100561.88
2023-03-15T03:52:19.377Z,100566.41
2023-03-15T03:54:48.752Z,100570.75
2023-03-15T03:57:18.131Z,100569.97
2023-03-15T03:59:47.538Z,100566.66
2023-03-15T04:02:19.819Z,100562.25
2023-03-15T04:04:50.375Z,100565.78
2023-03-15T04:07:19.954Z,100564.03
2023-03-15T04:09:49.583Z,100574.38
2023-03-15T04:12:19.244Z,100586.31
2023-03-15T04:14:48.903Z,100591.91
2023-03-15T04:17:20.956Z,100592.63
2023-03-15T04:19:50.389Z,100599.47
2023-03-15T04:22:19.753Z,100604.56
2023-03-15T04:24:50.738Z,100623.66
2023-03-15T04:27:20.158Z,100620.09
2023-03-15T04:29:49.580Z,100619.50
2023-03-15T04:32:21.658Z,100626.78
2023-03-15T04:34:51.412Z,100635.88
2023-03-15T04:37:21.516Z,100638.63
2023-03-15T04:39:52.524Z,100639.38
2023-03-15T04:42:21.997Z,100653.53
2023-03-15T04:44:51.415Z,100650.88
2023-03-15T04:47:23.649Z,100654.06
2023-03-15T04:49:53.068Z,100657.97
2023-03-15T04:52:22.475Z,100651.28
2023-03-15T04:54:52.141Z,100658.72
2023-03-15T04:57:21.554Z,100646.69
2023-03-15T04:59:50.980Z,100641.63
2023-03-15T05:02:23.180Z,100653.53
2023-03-15T05:04:52.631Z,100662.50
2023-03-15T05:07:22.009Z,100660.31
2023-03-15T05:09:51.466Z,100670.94
2023-03-15T05:12:20.903Z,100672.22
2023-03-15T05:14:52.167Z,100679.81
2023-03-15T05:17:25.423Z,100683.88
2023-03-15T05:19:54.852Z,100680.84
2023-03-15T05:22:26.013Z,100677.28
2023-03-15T05:24:56.307Z,100683.97
2023-03-15T05:27:25.720Z,100686.66
2023-03-15T05:29:55.158Z,100686.41
2023-03-15T05:32:27.224Z,100694.75
2023-03-15T05:34:57.313Z,100695.47
2023-03-15T05:37:27.032Z,100708.91
2023-03-15T05:39:56.778Z,100713.69
2023-03-15T05:42:29.303Z,100713.81
2023-03-15T05:44:59.651Z,100713.19
2023-03-15T05:47:33.228Z,100718.88
2023-03-15T05:50:05.160Z,100722.53
2023-03-15T05:52:34.602Z,100725.81
2023-03-15T05:55:04.030Z,100733.41
2023-03-15T05:57:33.622Z,100738.72
2023-03-15T06:00:04.743Z,100749.00
2023-03-15T06:02:36.724Z,100752.00
2023-03-15T06:05:06.323Z,100754.19
2023-03-15T06:07:36.072Z,100759.28
2023-03-15T06:10:05.785Z,100763.56
2023-03-15T06:12:35.174Z,100771.16
2023-03-15T06:15:04.585Z,100771.63
2023-03-15T06:17:36.661Z,100774.16
2023-03-15T06:20:06.379Z,100776.69
2023-03-15T06:22:35.916Z,100789.34
2023-03-15T06:25:05.397Z,100797.25
2023-03-15T06:27:34.916Z,100810.91
2023-03-15T06:30:04.414Z,100804.06
2023-03-15T06:32:36.386Z,100803.72
2023-03-15T06:35:06.128Z,100798.19
2023-03-15T06:37:36.168Z,100808.72
2023-03-15T06:40:08.941Z,100814.09
2023-03-15T06:42:39.027Z,100808.22
2023-03-15T06:45:10.257Z,100810.69
2023-03-15T06:47:42.244Z,100809.72
2023-03-15T06:50:13.870Z,100806.34
2023-03-15T06:52:43.303Z,100808.25
2023-03-15T06:55:17.287Z,100811.97
2023-03-15T06:57:46.732Z,100813.13
2023-03-15T07:00:18.142Z,100819.94
2023-03-15T07:02:50.195Z,100814.66
2023-03-15T07:05:19.756Z,100831.19
2023-03-15T07:07:49.195Z,100844.59
2023-03-15T07:10:18.780Z,100859.81
2023-03-15T07:12:48.176Z,100882.63
2023-03-15T07:15:17.759Z,100908.69
2023-03-15T07:17:49.903Z,100924.75
2023-03-15T07:20:19.518Z,100938.41
2023-03-15T07:22:49.846Z,100932.44
2023-03-15T07:25:23.868Z,100938.38
2023-03-15T07:27:53.443Z,100942.38
2023-03-15T07:30:23.630Z,100940.50
2023-03-15T07:32:55.706Z,100948.53
2023-03-15T07:35:25.228Z,100949.53
2023-03-15T07:37:54.793Z,100953.13
2023-03-15T07:40:26.385Z,100966.06
2023-03-15T07:42:55.816Z,100967.06
2023-03-15T07:45:25.251Z,100972.38
2023-03-15T07:47:57.205Z,100977.34
2023-03-15T07:50:26.631Z,100978.66
2023-03-15T07:52:56.094Z,100982.50
2023-03-15T07:55:25.520Z,100980.13
2023-03-15T07:57:54.971Z,100978.88
2023-03-15T08:00:24.942Z,100979.31
2023-03-15T08:02:57.113Z,100974.84
2023-03-15T08:05:28.993Z,100976.94
2023-03-15T08:07:58.887Z,100972.25
2023-03-15T08:10:28.340Z,100972.56
2023-03-15T08:12:57.808Z,100974.84
2023-03-15T08:15:27.284Z,100979.44
2023-03-15T08:17:59.738Z,100976.72
2023-03-15T08:20:29.998Z,100969.63
2023-03-15T08:22:59.651Z,100975.28
2023-03-15T08:25:29.322Z,100989.63
2023-03-15T08:27:58.712Z,100998.22
2023-03-15T08:30:28.277Z,101002.47
2023-03-15T08:33:00.380Z,101007.72
2023-03-15T08:35:31.122Z,101020.34
2023-03-15T08:38:02.623Z,101026.41
2023-03-15T08:40:32.937Z,101031.56
2023-03-15T08:43:02.800Z,101045.72
2023-03-15T08:45:37.465Z,101039.28
2023-03-15T08:48:14.897Z,101042.41
2023-03-15T08:50:44.453Z,101057.28
2023-03-15T08:53:14.163Z,101046.78
2023-03-15T08:55:44.209Z,101060.78
2023-03-15T08:58:14.435Z,101091.84
2023-03-15T09:00:43.858Z,101110.59
2023-03-15T09:03:16.820Z,101113.38
2023-03-15T09:05:46.303Z,101119.41
2023-03-15T09:08:17.013Z,101121.66
2023-03-15T09:10:46.591Z,101142.56
2023-03-15T09:13:16.236Z,101150.50
2023-03-15T09:15:45.628Z,101153.78
2023-03-15T09:18:17.607Z,101149.47
2023-03-15T09:20:47.169Z,101145.56
2023-03-15T09:23:17.147Z,101146.31
2023-03-15T09:25:46.533Z,101141.31
2023-03-15T09:28:15.982Z,101143.84
2023-03-15T09:30:45.484Z,101138.50
2023-03-15T09:33:17.561Z,101144.25
2023-03-15T09:35:47.270Z,101135.69
2023-03-15T09:38:16.974Z,101136.53
2023-03-15T09:40:47.546Z,101136.53
2023-03-15T09:43:34.782Z,101141.69
2023-03-15T09:46:13.679Z,101136.66
2023-03-15T09:48:53.215Z,101142.16
2023-03-15T09:51:32.704Z,101149.53
2023-03-15T09:54:05.562Z,101150.38
2023-03-15T09:56:37.342Z,101165.16
2023-03-15T09:59:07.274Z,101170.34
2023-03-15T10:01:39.579Z,101170.97
2023-03-15T10:04:16.702Z,101165.84
2023-03-15T10:06:51.848Z,101190.00
2023-03-15T10:09:26.722Z,101189.63
2023-03-15T10:12:04.158Z,101195.94
2023-03-15T10:14:42.976Z,101195.84
2023-03-15T10:17:15.770Z,101185.88
2023-03-15T10:19:52.616Z,101185.88
2023-03-15T10:22:28.903Z,101188.09
2023-03-15T10:25:01.020Z,101161.34
2023-03-15T10:27:35.012Z,101167.31
2023-03-15T10:30:04.516Z,101169.75
2023-03-15T10:32:41.193Z,101160.50
2023-03-15T10:35:17.730Z,101165.84
2023-03-15T10:37:47.834Z,101162.81
2023-03-15T10:40:18.353Z,101157.22
2023-03-15T10:42:49.187Z,101175.78
2023-03-15T10:45:24.243Z,101176.31
2023-03-15T10:48:00.452Z,101181.91
2023-03-15T10:50:35.266Z,101206.19
2023-03-15T10:53:12.170Z,101214.41
2023-03-15T10:55:46.772Z,101216.81
2023-03-15T10:58:25.795Z,101207.34
2023-03-15T11:00:57.288Z,101195.09
2023-03-15T11:03:28.290Z,101190.22
2023-03-15T11:06:03.390Z,101187.22
2023-03-15T11:08:41.421Z,101181.25
2023-03-15T11:11:11.614Z,101184.72
2023-03-15T11:13:42.915Z,101172.22
2023-03-15T11:16:24.265Z,101170.66
2023-03-15T11:18:58.425Z,101179.94
2023-03-15T11:21:34.252Z,101198.81
2023-03-15T11:24:04.674Z,101202.78
2023-03-15T11:26:37.336Z,101227.59
2023-03-15T11:29:08.807Z,101227.22
2023-03-15T11:31:38.901Z,101235.38
2023-03-15T11:34:12.077Z,101239.19
2023-03-15T11:36:55.660Z,101244.81
2023-03-15T11:39:37.013Z,101275.22
2023-03-15T11:42:11.852Z,101309.66
2023-03-15T11:44:44.134Z,101329.34
2023-03-15T11:47:16.887Z,101308.78
2023-03-15T11:49:50.247Z,101305.69
2023-03-15T11:52:24.333Z,101283.19
2023-03-15T11:54:54.219Z,101275.91
2023-03-15T11:57:45.151Z,101268.41
2023-03-15T12:00:44.329Z,101276.28
2023-03-15T12:03:34.380Z,101273.72
2023-03-15T12:06:13.546Z,101276.34
2023-03-15T12:08:48.550Z,101275.88
2023-03-15T12:11:40.903Z,101291.00
2023-03-15T12:14:30.878Z,101299.53
2023-03-15T12:17:40.384Z,101305.94
2023-03-15T12:20:18.158Z,101292.56
2023-03-15T12:22:52.903Z,101284.25
2023-03-15T12:25:28.356Z,101302.72
2023-03-15T12:27:59.551Z,101290.31
2023-03-15T12:30:34.421Z,101282.13
2023-03-15T12:33:05.297Z,101310.03
2023-03-15T12:35:41.308Z,101307.13
2023-03-15T12:38:15.553Z,101319.16
2023-03-15T12:40:55.682Z,101323.81
2023-03-15T12:43:41.147Z,101332.88
2023-03-15T12:46:10.968Z,101342.97
2023-03-15T12:49:12.461Z,101360.69
2023-03-15T12:51:46.319Z,101376.56
2023-03-15T12:54:17.058Z,101386.56
2023-03-15T12:56:51.076Z,101387.94
2023-03-15T12:59:33.339Z,101402.19
2023-03-15T13:02:04.304Z,101413.38
2023-03-15T13:04:36.342Z,101416.41
2023-03-15T13:07:30.562Z,101423.97
2023-03-15T13:10:10.191Z,101415.53
2023-03-15T13:12:43.425Z,101417.28
2023-03-15T13:15:16.520Z,101421.84
2023-03-15T13:17:51.927Z,101432.88
2023-03-15T13:20:45.851Z,101422.94
2023-03-15T13:23:19.970Z,101450.56
2023-03-15T13:25:57.393Z,101452.88
2023-03-15T13:28:29.032Z,101452.44
2023-03-15T13:30:59.391Z,101460.72
2023-03-15T13:33:31.458Z,101463.16
2023-03-15T13:36:05.821Z,101464.94
2023-03-15T13:38:36.803Z,101452.19
2023-03-15T13:41:08.403Z,101456.44
2023-03-15T13:43:39.736Z,101441.72
2023-03-15T13:46:09.252Z,101431.34
2023-03-15T13:48:40.263Z,101428.72
2023-03-15T13:51:15.247Z,101429.41
2023-03-15T13:53:49.865Z,101404.59
2023-03-15T13:56:21.092Z,101403.50
2023-03-15T13:58:52.179Z,101418.66
2023-03-15T14:01:23.142Z,101417.47
2023-03-15T14:03:58.209Z,101417.41
2023-03-15T14:06:31.622Z,101420.31
2023-03-15T14:09:04.093Z,101415.19
2023-03-15T14:11:40.720Z,101409.78
2023-03-15T14:14:25.970Z,101382.06
2023-03-15T14:17:05.274Z,101369.97
2023-03-15T14:19:36.854Z,101370.72
2023-03-15T14:22:18.136Z,101409.38
2023-03-15T14:24:51.131Z,101406.34
2023-03-15T14:27:22.234Z,101427.16
2023-03-15T14:29:53.551Z,101422.91
2023-03-15T14:32:29.297Z,101413.59
2023-03-15T14:35:04.168Z,101415.09
2023-03-15T14:37:39.834Z,101450.91
2023-03-15T14:40:15.985Z,101434.22
2023-03-15T14:42:45.554Z,101438.72
2023-03-15T14:45:17.635Z,101435.47
2023-03-15T14:47:56.911Z,101445.28
2023-03-15T14:50:28.957Z,101439.78
2023-03-15T14:53:01.866Z,101427.63
2023-03-15T14:55:34.870Z,101431.66
2023-03-15T14:58:05.297Z,101438.56
2023-03-15T15:00:35.589Z,101457.38
2023-03-15T15:03:05.305Z,101466.59
2023-03-15T15:05:37.214Z,101474.59
2023-03-15T15:08:12.876Z,101484.38
2023-03-15T15:10:42.866Z,101503.19
2023-03-15T15:13:17.823Z,101500.69
2023-03-15T15:15:55.034Z,101498.03
2023-03-15T15:18:27.059Z,101499.56
2023-03-15T15:20:57.480Z,101501.78
2023-03-15T15:23:31.667Z,101500.31
2023-03-15T15:26:03.275Z,101488.53
2023-03-15T15:28:36.637Z,101471.06
2023-03-15T15:31:08.213Z,101433.06
2023-03-15T15:33:37.742Z,101447.31
2023-03-15T15:36:17.202Z,101443.66
2023-03-15T15:38:49.263Z,101449.63
2023-03-15T15:41:22.172Z,101493.66
2023-03-15T15:43:51.556Z,101499.06
2023-03-15T15:46:21.098Z,101492.91
2023-03-15T15:48:51.023Z,101519.25
2023-03-15T15:51:28.300Z,101513.75
2023-03-15T15:54:02.201Z,101536.53
2023-03-15T15:56:35.134Z,101514.44
2023-03-15T15:59:06.513Z,101530.69
2023-03-15T16:01:41.029Z,101526.91
2023-03-15T16:04:15.736Z,101529.00
2023-03-15T16:06:45.292Z,101522.59
2023-03-15T16:09:17.283Z,101545.31
2023-03-15T16:11:46.676Z,101552.50
2023-03-15T16:14:16.199Z,101560.59
2023-03-15T16:16:46.970Z,101566.09
2023-03-15T16:19:16.454Z,101576.88
2023-03-15T16:21:50.561Z,101593.72
2023-03-15T16:24:24.943Z,101601.91
2023-03-15T16:26:55.956Z,101604.72
2023-03-15T16:29:28.782Z,101609.84
2023-03-15T16:32:13.950Z,101613.16
2023-03-15T16:34:46.270Z,101636.94
2023-03-15T16:37:17.374Z,101631.44
2023-03-15T16:39:51.496Z,101639.75
2023-03-15T16:42:22.450Z,101636.84
2023-03-15T16:44:51.909Z,101629.53
2023-03-15T16:47:21.961Z,101627.75
2023-03-15T16:49:51.440Z,101598.38
2023-03-15T16:52:20.953Z,101596.88
2023-03-15T16:54:53.035Z,101588.16
2023-03-15T16:57:25.232Z,101597.38
2023-03-15T16:59:54.684Z,101609.38
2023-03-15T17:02:25.613Z,101620.22
2023-03-15T17:04:55.388Z,101621.63
2023-03-15T17:07:28.440Z,101632.38
2023-03-15T17:10:00.698Z,101634.03
2023-03-15T17:12:31.147Z,101645.66
2023-03-15T17:15:01.642Z,101649.06
2023-03-15T17:17:33.193Z,101648.69
2023-03-15T17:20:06.428Z,101658.41
2023-03-15T17:22:35.893Z,101660.34
2023-03-15T17:25:08.325Z,101664.91
2023-03-15T17:27:39.452Z,101662.97
2023-03-15T17:30:18.297Z,101672.66
2023-03-15T17:32:47.940Z,101679.00
2023-03-15T17:35:17.786Z,101680.25
2023-03-15T17:37:47.750Z,101691.63
2023-03-15T17:40:25.095Z,101696.31
2023-03-15T17:42:55.404Z,101699.84
2023-03-15T17:45:26.415Z,101691.56
2023-03-15T17:47:56.756Z,101698.81
2023-03-15T17:50:28.257Z,101699.06
2023-03-15T17:52:58.820Z,101707.94
2023-03-15T17:55:34.379Z,101720.41
2023-03-15T17:58:04.297Z,101724.97
2023-03-15T18:00:34.380Z,101737.72
2023-03-15T18:03:04.467Z,101736.44
2023-03-15T18:05:34.001Z,101730.28
2023-03-15T18:08:03.906Z,101745.78
2023-03-15T18:10:40.148Z,101751.78
2023-03-15T18:13:09.605Z,101759.50
2023-03-15T18:15:39.277Z,101764.06
2023-03-15T18:18:08.784Z,101761.22
2023-03-15T18:20:38.343Z,101766.19
2023-03-15T18:23:08.493Z,101782.34
2023-03-15T18:25:40.903Z,101777.88
2023-03-15T18:28:10.454Z,101781.78
2023-03-15T18:30:39.925Z,101774.09
2023-03-15T18:33:09.392Z,101783.22
2023-03-15T18:35:39.356Z,101782.19
2023-03-15T18:38:08.842Z,101781.16
2023-03-15T18:40:46.676Z,101791.72
2023-03-15T18:43:16.852Z,101790.91
2023-03-15T18:45:46.615Z,101790.34
2023-03-15T18:48:16.034Z,101798.13
2023-03-15T18:50:46.156Z,101799.97
2023-03-15T18:53:15.695Z,101805.06
2023-03-15T18:55:47.671Z,101802.84
2023-03-15T18:58:17.150Z,101805.59
2023-03-15T19:00:49.028Z,101812.03
2023-03-15T19:03:18.439Z,101815.19
2023-03-15T19:05:47.834Z,101808.44
2023-03-15T19:08:17.259Z,101810.41
2023-03-15T19:10:49.492Z,101816.13
2023-03-15T19:13:18.944Z,101813.13
2023-03-15T19:15:48.409Z,101817.94
2023-03-15T19:18:17.829Z,101818.09
2023-03-15T19:20:49.071Z,101821.09
2023-03-15T19:23:18.499Z,101825.75
2023-03-15T19:25:51.139Z,101822.28
2023-03-15T19:28:20.562Z,101816.03
2023-03-15T19:30:50.012Z,101820.97
2023-03-15T19:33:19.486Z,101819.16
2023-03-15T19:35:48.930Z,101824.88
2023-03-15T19:38:18.939Z,101831.91
2023-03-15T19:40:55.162Z,101826.22
2023-03-15T19:43:26.210Z,101823.53
2023-03-15T19:45:55.619Z,101833.72
2023-03-15T19:48:25.081Z,101832.41
2023-03-15T19:50:54.474Z,101828.78
2023-03-15T19:53:23.925Z,101830.72
2023-03-15T19:55:55.972Z,101832.84
2023-03-15T19:58:25.433Z,101833.75
2023-03-15T20:00:57.936Z,101837.34
2023-03-15T20:03:27.723Z,101840.63
2023-03-15T20:05:57.321Z,101836.47
2023-03-15T20:08:26.812Z,101837.94
2023-03-15T20:11:04.748Z,101837.94
2023-03-15T20:13:35.317Z,101838.53
2023-03-15T20:16:04.879Z,101836.03
2023-03-15T20:18:34.497Z,101843.16
2023-03-15T20:21:03.932Z,101837.81
2023-03-15T20:23:33.513Z,101840.03
2023-03-15T20:26:10.882Z,101844.66
2023-03-15T20:28:41.363Z,101848.13
2023-03-15T20:31:11.720Z,101847.94
2023-03-15T20:33:41.380Z,101848.97
2023-03-15T20:36:11.275Z,101838.81
2023-03-15T20:38:41.024Z,101830.00
2023-03-15T20:41:13.890Z,101838.22
2023-03-15T20:43:43.810Z,101828.03
2023-03-15T20:46:13.724Z,101832.84
2023-03-15T20:48:43.236Z,101831.47
2023-03-15T20:51:12.611Z,101832.81
2023-03-15T20:53:42.349Z,101839.53
2023-03-15T20:56:14.406Z,101837.44
2023-03-15T20:58:43.923Z,101835.94
2023-03-15T21:01:15.020Z,101834.59
2023-03-15T21:03:44.702Z,101835.03
2023-03-15T21:06:14.273Z,101837.25
2023-03-15T21:08:45.990Z,101836.22
2023-03-15T21:11:17.998Z,101837.56
2023-03-15T21:13:47.873Z,101844.69
2023-03-15T21:16:17.469Z,101839.47
2023-03-15T21:18:51.824Z,101831.28
2023-03-15T21:21:21.873Z,101834.84
2023-03-15T21:23:51.310Z,101823.50
2023-03-15T21:26:23.468Z,101826.47
2023-03-15T21:28:52.962Z,101830.50
2023-03-15T21:31:22.510Z,101816.75
2023-03-15T21:33:51.972Z,101816.75
2023-03-15T21:36:21.396Z,101817.94
2023-03-15T21:38:50.994Z,101815.53
2023-03-15T21:41:22.962Z,101807.91
2023-03-15T21:43:52.439Z,101809.75
2023-03-15T21:46:21.935Z,101807.91
2023-03-15T21:48:51.694Z,101810.16
2023-03-15T21:51:22.257Z,101804.50
2023-03-15T21:53:51.786Z,101809.56
2023-03-15T21:56:26.158Z,101801.78
2023-03-15T21:58:56.242Z,101806.88
2023-03-15T22:01:25.688Z,101805.38
2023-03-15T22:03:55.933Z,101813.16
2023-03-15T22:06:25.407Z,101811.06
2023-03-15T22:08:54.944Z,101817.34
2023-03-15T22:11:26.903Z,101818.69
2023-03-15T22:13:56.312Z,101824.09
2023-03-15T22:16:25.773Z,101819.91
2023-03-15T22:18:55.273Z,101820.50
2023-03-15T22:21:24.644Z,101821.22
2023-03-15T22:23:54.083Z,101816.91
2023-03-15T22:26:23.775Z,101819.75
2023-03-15T22:28:55.815Z,101814.97
2023-03-15T22:31:25.301Z,101818.69
2023-03-15T22:33:54.710Z,101813.47
2023-03-15T22:36:24.316Z,101815.09
2023-03-15T22:38:54.255Z,101819.16
2023-03-15T22:41:24.096Z,101813.31
2023-03-15T22:43:56.393Z,101813.31
2023-03-15T22:46:26.098Z,101813.00
2023-03-15T22:48:55.542Z,101815.25
2023-03-15T22:51:24.927Z,101817.78
2023-03-15T22:53:54.451Z,101817.03
2023-03-15T22:56:23.851Z,101815.25
2023-03-15T22:58:55.895Z,101825.06
2023-03-15T23:01:25.420Z,101817.16
2023-03-15T23:03:54.882Z,101824.94
2023-03-15T23:06:25.412Z,101815.38
2023-03-15T23:08:54.846Z,101816.13
2023-03-15T23:11:24.393Z,101818.03
2023-03-15T23:13:56.708Z,101824.91
2023-03-15T23:16:26.234Z,101829.97
2023-03-15T23:18:55.701Z,101830.56
2023-03-15T23:21:25.124Z,101825.78
2023-03-15T23:23:54.568Z,101834.38
2023-03-15T23:26:25.695Z,101834.03
2023-03-15T23:28:57.781Z,101837.03
2023-03-15T23:31:27.211Z,101832.97
2023-03-15T23:33:56.638Z,101831.34
2023-03-15T23:36:26.053Z,101832.22
2023-03-15T23:38:56.078Z,101838.47
2023-03-15T23:41:25.502Z,101838.47
2023-03-15T23:43:57.539Z,101839.63
2023-03-15T23:46:28.197Z,101834.13
2023-03-15T23:48:57.882Z,101836.34
2023-03-15T23:51:27.292Z,101836.41
2023-03-15T23:53:56.746Z,101833.41
2023-03-15T23:56:26.166Z,101834.13
2023-03-15T23:58:58.732Z,101833.97
